Vantage, Washington
Current Conditions -  °F | °C
As of 6:53 AM on Tuesday 21 Oct 2014 (Local Time) from KELN Reporting Station
Moderate Fog Moderate Fog  
Wind Chill: 41°   Ceiling: 5500
Heat Index: 44°   Visibility: 0.25mi
Dew Point: 41°   Wind: 6mph
Humidity: 89%   Direction: 300°WNW
Pressure: 29.87"   Gusts: NA
Location:  46.95°N, 119.99°W
Report Text: KELN 211353Z AUTO 30005KT 1/4SM FG FEW004 OVC055 07/05 A2987 RMK AO2 SLP119 T00670050
Loading
Personal Weather Stations






























Interactive Weather Map
Tropical Storm Tracking
New forecast layout! Learn more

10-Day Weather Forecast

Advertisements
Track Severe Weather on mobile